createdAt,value
2023-01-12T00:02:07.617Z,99.99
2023-01-12T00:05:09.986Z,99.71
2023-01-12T00:08:12.216Z,99.39
2023-01-12T00:11:15.179Z,99.18
2023-01-12T00:14:17.509Z,98.20
2023-01-12T00:17:19.778Z,98.10
2023-01-12T00:20:21.966Z,97.91
2023-01-12T00:23:26.146Z,97.73
2023-01-12T00:26:28.325Z,98.45
2023-01-12T00:29:30.652Z,98.92
2023-01-12T00:32:32.832Z,99.18
2023-01-12T00:35:38.033Z,99.39
2023-01-12T00:38:40.312Z,98.70
2023-01-12T00:42:02.400Z,99.13
2023-01-12T00:45:23.218Z,98.97
2023-01-12T00:48:25.667Z,98.16
2023-01-12T00:51:27.888Z,98.00
2023-01-12T00:54:30.076Z,97.45
2023-01-12T00:57:32.382Z,96.89
2023-01-12T01:00:34.615Z,96.54
2023-01-12T01:03:36.816Z,96.77
2023-01-12T01:06:39.372Z,96.84
2023-01-12T01:09:42.157Z,96.65
2023-01-12T01:12:44.592Z,96.38
2023-01-12T01:15:46.866Z,96.27
2023-01-12T01:18:49.112Z,96.27
2023-01-12T01:21:51.357Z,96.72
2023-01-12T01:24:53.556Z,97.27
2023-01-12T01:27:55.768Z,97.10
2023-01-12T01:31:14.164Z,97.00
2023-01-12T01:34:16.512Z,96.36
2023-01-12T01:37:18.822Z,96.68
2023-01-12T01:40:21.040Z,97.20
2023-01-12T01:43:26.203Z,98.05
2023-01-12T01:46:46.586Z,97.97
2023-01-12T01:49:52.678Z,98.20
2023-01-12T01:53:03.925Z,99.59
2023-01-12T01:56:11.573Z,99.26
2023-01-12T01:59:18.401Z,98.88
2023-01-12T02:02:21.262Z,99.53
2023-01-12T02:05:27.167Z,99.01
2023-01-12T02:08:38.493Z,99.61
2023-01-12T02:12:00.972Z,99.37
2023-01-12T02:15:21.941Z,99.03
2023-01-12T02:18:44.172Z,98.63
2023-01-12T02:22:29.845Z,98.03
2023-01-12T02:25:56.157Z,97.00
2023-01-12T02:29:17.305Z,96.74
2023-01-12T02:32:38.963Z,96.30
2023-01-12T02:35:49.494Z,96.54
2023-01-12T02:39:03.990Z,96.82
2023-01-12T02:42:41.446Z,97.50
2023-01-12T02:46:28.039Z,96.83
2023-01-12T02:49:36.522Z,96.67
2023-01-12T02:52:43.961Z,96.49
2023-01-12T02:55:47.866Z,96.57
2023-01-12T02:58:54.555Z,97.33
2023-01-12T03:02:01.369Z,97.39
2023-01-12T03:05:04.548Z,97.16
2023-01-12T03:08:07.681Z,97.24
2023-01-12T03:11:20.513Z,96.78
2023-01-12T03:14:23.119Z,96.67
2023-01-12T03:17:54.443Z,96.66
2023-01-12T03:21:03.217Z,97.46
2023-01-12T03:24:10.250Z,97.93
2023-01-12T03:27:17.898Z,98.37
2023-01-12T03:30:33.408Z,98.80
2023-01-12T03:33:36.400Z,98.75
2023-01-12T03:37:06.161Z,99.44
2023-01-12T03:40:25.639Z,99.34
2023-01-12T03:43:33.660Z,98.36
2023-01-12T03:46:43.394Z,97.84
2023-01-12T03:50:11.878Z,97.81
2023-01-12T03:53:17.162Z,98.21
2023-01-12T03:56:20.992Z,98.93
2023-01-12T03:59:23.932Z,99.15
2023-01-12T04:02:26.680Z,99.00
2023-01-12T04:05:28.925Z,98.39
2023-01-12T04:08:31.675Z,97.41
2023-01-12T04:11:52.288Z,96.85
2023-01-12T04:14:54.550Z,97.22
2023-01-12T04:17:56.796Z,97.20
2023-01-12T04:20:59.012Z,97.27
2023-01-12T04:24:01.271Z,97.81
2023-01-12T04:27:03.663Z,97.97
2023-01-12T04:30:08.637Z,98.38
2023-01-12T04:33:11.559Z,98.81
2023-01-12T04:36:13.881Z,98.41
2023-01-12T04:39:16.137Z,98.21
2023-01-12T04:42:36.830Z,98.12
2023-01-12T04:45:41.710Z,98.08
2023-01-12T04:48:44.298Z,98.13
2023-01-12T04:51:46.531Z,98.10
2023-01-12T04:54:48.740Z,98.82
2023-01-12T04:57:51.036Z,98.76
2023-01-12T05:00:53.297Z,98.43
2023-01-12T05:04:02.474Z,98.13
2023-01-12T05:07:04.752Z,98.11
2023-01-12T05:10:25.179Z,97.43
2023-01-12T05:13:30.565Z,97.04
2023-01-12T05:16:32.855Z,97.17
2023-01-12T05:19:35.101Z,97.16
2023-01-12T05:22:37.313Z,97.18
2023-01-12T05:25:39.598Z,96.82
2023-01-12T05:28:41.881Z,96.79
2023-01-12T05:31:44.128Z,97.36
2023-01-12T05:34:46.322Z,97.38
2023-01-12T05:37:48.549Z,97.60
2023-01-12T05:40:50.765Z,97.97
2023-01-12T05:43:53.180Z,97.62
2023-01-12T05:46:57.366Z,96.71
2023-01-12T05:49:59.578Z,96.60
2023-01-12T05:53:01.805Z,96.16
2023-01-12T05:56:10.585Z,96.40
2023-01-12T05:59:14.645Z,96.95
2023-01-12T06:02:17.541Z,97.11
2023-01-12T06:05:19.853Z,97.31
2023-01-12T06:08:22.355Z,97.57
2023-01-12T06:11:43.145Z,97.56
2023-01-12T06:14:45.445Z,97.01
2023-01-12T06:17:47.937Z,95.92
2023-01-12T06:20:50.173Z,95.79
2023-01-12T06:23:52.380Z,94.77
2023-01-12T06:26:55.211Z,94.97
2023-01-12T06:29:57.420Z,95.48
2023-01-12T06:33:02.335Z,94.85
2023-01-12T06:36:05.554Z,94.30
2023-01-12T06:39:07.981Z,94.32
2023-01-12T06:42:28.554Z,94.66
2023-01-12T06:45:30.905Z,93.98
2023-01-12T06:48:38.733Z,94.29
2023-01-12T06:51:41.735Z,95.35
2023-01-12T06:54:43.936Z,95.02
2023-01-12T06:57:46.287Z,94.40
2023-01-12T07:00:48.618Z,93.90
2023-01-12T07:03:51.665Z,94.02
2023-01-12T07:06:55.374Z,94.13
2023-01-12T07:09:58.148Z,94.39
2023-01-12T07:13:01.206Z,93.67
2023-01-12T07:16:08.214Z,92.55
2023-01-12T07:19:10.860Z,88.73
2023-01-12T07:22:13.248Z,89.85
2023-01-12T07:25:19.151Z,88.96
2023-01-12T07:28:22.977Z,89.78
2023-01-12T07:31:28.231Z,89.00
2023-01-12T07:34:35.948Z,87.84
2023-01-12T07:37:38.209Z,87.96
2023-01-12T07:40:40.960Z,88.61
2023-01-12T07:43:43.480Z,88.99
2023-01-12T07:46:46.039Z,88.05
2023-01-12T07:49:48.629Z,88.32
2023-01-12T07:52:54.312Z,86.51
2023-01-12T07:56:01.590Z,87.71
2023-01-12T07:59:04.369Z,88.28
2023-01-12T08:02:08.303Z,89.39
2023-01-12T08:05:15.544Z,89.07
2023-01-12T08:08:26.894Z,87.73
2023-01-12T08:11:34.668Z,89.41
2023-01-12T08:14:38.805Z,91.06
2023-01-12T08:17:50.852Z,90.11
2023-01-12T08:20:58.686Z,91.27
2023-01-12T08:24:06.229Z,90.86
2023-01-12T08:27:11.708Z,92.65
2023-01-12T08:30:17.617Z,92.43
2023-01-12T08:33:20.283Z,92.43
2023-01-12T08:36:23.644Z,93.43
2023-01-12T08:39:31.991Z,94.03
2023-01-12T08:42:34.446Z,94.21
2023-01-12T08:45:36.668Z,93.14
2023-01-12T08:48:41.783Z,92.88
2023-01-12T08:51:47.390Z,94.05
2023-01-12T08:54:50.380Z,93.80
2023-01-12T08:57:52.686Z,93.61
2023-01-12T09:00:57.110Z,93.47
2023-01-12T09:04:03.131Z,93.59
2023-01-12T09:07:07.020Z,94.48
2023-01-12T09:10:18.203Z,95.07
2023-01-12T09:13:23.461Z,94.80
2023-01-12T09:16:31.111Z,95.51
2023-01-12T09:19:34.708Z,95.17
2023-01-12T09:22:37.158Z,95.36
2023-01-12T09:25:39.796Z,95.81
2023-01-12T09:28:45.799Z,96.08
2023-01-12T09:31:48.202Z,95.87
2023-01-12T09:34:51.822Z,96.36
2023-01-12T09:37:54.106Z,96.55
2023-01-12T09:41:12.081Z,96.80
2023-01-12T09:44:38.055Z,96.76
2023-01-12T09:47:56.503Z,96.27
2023-01-12T09:51:13.407Z,96.44
2023-01-12T09:54:23.580Z,95.73
2023-01-12T09:57:44.208Z,95.82
2023-01-12T10:00:54.128Z,94.45
2023-01-12T10:03:57.572Z,94.64
2023-01-12T10:07:11.527Z,93.90
2023-01-12T10:10:16.022Z,93.96
2023-01-12T10:13:19.695Z,93.22
2023-01-12T10:16:50.507Z,91.45
2023-01-12T10:20:09.548Z,92.28
2023-01-12T10:23:19.455Z,92.06
2023-01-12T10:26:24.290Z,90.64
2023-01-12T10:29:27.186Z,91.41
2023-01-12T10:32:41.491Z,92.84
2023-01-12T10:36:01.650Z,93.35
2023-01-12T10:39:05.189Z,94.27
2023-01-12T10:42:36.475Z,95.14
2023-01-12T10:45:38.950Z,94.76
2023-01-12T10:48:56.316Z,94.21
2023-01-12T10:52:09.192Z,94.40
2023-01-12T10:55:19.909Z,93.97
2023-01-12T10:58:29.163Z,93.86
2023-01-12T11:01:54.204Z,94.51
2023-01-12T11:05:02.730Z,95.32
2023-01-12T11:08:28.756Z,95.18
2023-01-12T11:11:34.330Z,95.66
2023-01-12T11:14:38.197Z,95.71
2023-01-12T11:18:10.654Z,95.41
2023-01-12T11:21:23.897Z,94.55
2023-01-12T11:24:52.718Z,94.31
2023-01-12T11:28:26.091Z,93.30
2023-01-12T11:31:45.969Z,92.41
2023-01-12T11:34:59.316Z,91.51
2023-01-12T11:38:12.300Z,90.34
2023-01-12T11:41:29.258Z,85.12
2023-01-12T11:44:37.236Z,84.23
2023-01-12T11:47:47.273Z,84.65
2023-01-12T11:50:51.041Z,82.40
2023-01-12T11:53:54.158Z,78.19
2023-01-12T11:57:34.349Z,76.59
2023-01-12T12:00:55.199Z,75.95
2023-01-12T12:04:26.769Z,76.21
2023-01-12T12:07:43.908Z,77.12
2023-01-12T12:11:01.042Z,77.53
2023-01-12T12:14:13.963Z,76.88
2023-01-12T12:17:33.380Z,67.75
2023-01-12T12:20:46.498Z,62.03
2023-01-12T12:24:16.245Z,62.32
2023-01-12T12:27:49.090Z,64.72
2023-01-12T12:31:06.372Z,56.24
2023-01-12T12:34:37.046Z,52.71
2023-01-12T12:37:54.986Z,53.47
2023-01-12T12:41:18.549Z,51.76
2023-01-12T12:44:54.728Z,49.69
2023-01-12T12:48:18.193Z,49.27
2023-01-12T12:51:30.189Z,52.43
2023-01-12T12:54:35.496Z,53.01
2023-01-12T12:58:02.034Z,52.14
2023-01-12T13:01:19.575Z,56.06
2023-01-12T13:04:46.263Z,54.27
2023-01-12T13:07:52.187Z,54.87
2023-01-12T13:10:57.714Z,54.76
2023-01-12T13:14:03.318Z,59.89
2023-01-12T13:17:21.158Z,63.24
2023-01-12T13:20:34.565Z,65.21
2023-01-12T13:23:48.853Z,65.41
2023-01-12T13:27:00.741Z,67.18
2023-01-12T13:30:32.362Z,69.79
2023-01-12T13:33:35.732Z,70.99
2023-01-12T13:36:39.197Z,70.78
2023-01-12T13:39:52.403Z,73.70
2023-01-12T13:43:17.148Z,75.28
2023-01-12T13:46:27.176Z,76.40
2023-01-12T13:49:32.484Z,76.29
2023-01-12T13:52:37.182Z,77.23
2023-01-12T13:55:39.495Z,77.20
2023-01-12T13:58:43.666Z,78.05
2023-01-12T14:01:48.528Z,79.11
2023-01-12T14:04:57.755Z,80.48
2023-01-12T14:08:24.229Z,82.20
2023-01-12T14:11:29.273Z,82.42
2023-01-12T14:15:04.363Z,82.90
2023-01-12T14:18:11.708Z,82.76
2023-01-12T14:21:37.935Z,81.35
2023-01-12T14:24:40.198Z,80.06
2023-01-12T14:27:56.484Z,79.82
2023-01-12T14:30:59.067Z,81.71
2023-01-12T14:34:03.971Z,81.68
2023-01-12T14:37:21.171Z,83.09
2023-01-12T14:40:30.686Z,82.10
2023-01-12T14:43:53.630Z,80.73
2023-01-12T14:46:56.030Z,78.98
2023-01-12T14:50:14.097Z,79.12
2023-01-12T14:53:31.074Z,78.04
2023-01-12T14:56:43.225Z,78.55
2023-01-12T14:59:47.682Z,80.85
2023-01-12T15:02:52.317Z,83.45
2023-01-12T15:05:55.288Z,86.90
2023-01-12T15:09:01.111Z,88.38
2023-01-12T15:12:28.196Z,89.59
2023-01-12T15:15:51.279Z,91.27
2023-01-12T15:19:11.735Z,92.08
2023-01-12T15:22:32.613Z,93.46
2023-01-12T15:25:38.104Z,94.66
2023-01-12T15:28:41.011Z,95.38
2023-01-12T15:31:44.080Z,95.78
2023-01-12T15:34:46.674Z,96.18
2023-01-12T15:37:49.584Z,96.42
2023-01-12T15:40:51.800Z,96.76
2023-01-12T15:43:54.015Z,97.06
2023-01-12T15:46:56.199Z,97.27
2023-01-12T15:49:58.418Z,97.27
2023-01-12T15:53:01.662Z,97.21
2023-01-12T15:56:04.386Z,97.47
2023-01-12T15:59:06.739Z,97.46
2023-01-12T16:02:17.962Z,97.83
2023-01-12T16:05:23.051Z,98.50
2023-01-12T16:08:25.350Z,98.79
2023-01-12T16:11:27.600Z,98.54
2023-01-12T16:14:29.908Z,98.85
2023-01-12T16:17:32.149Z,99.36
2023-01-12T16:20:34.370Z,99.72
2023-01-12T16:23:37.632Z,99.26
2023-01-12T16:26:39.927Z,99.49
2023-01-12T16:29:42.266Z,99.80
2023-01-12T16:32:46.919Z,99.73
2023-01-12T16:35:49.437Z,99.74
2023-01-12T16:38:51.678Z,99.99
2023-01-12T16:42:03.424Z,99.99
2023-01-12T16:45:06.414Z,99.99
2023-01-12T16:48:08.753Z,99.99
2023-01-12T16:51:19.816Z,99.99
2023-01-12T16:54:22.075Z,99.99
2023-01-12T16:57:24.440Z,99.99
2023-01-12T17:00:28.001Z,99.99
2023-01-12T17:03:30.347Z,99.99
2023-01-12T17:06:33.335Z,99.99
2023-01-12T17:09:39.793Z,99.99
2023-01-12T17:12:50.949Z,99.99
2023-01-12T17:15:59.076Z,99.99
2023-01-12T17:19:01.399Z,99.99
2023-01-12T17:22:06.334Z,99.99
2023-01-12T17:25:09.021Z,99.99
2023-01-12T17:28:11.298Z,99.99
2023-01-12T17:31:17.524Z,99.99
2023-01-12T17:34:19.906Z,99.99
2023-01-12T17:37:22.116Z,99.99
2023-01-12T17:40:26.569Z,99.99
2023-01-12T17:43:28.786Z,99.99
2023-01-12T17:46:32.023Z,99.99
2023-01-12T17:49:34.297Z,99.99
2023-01-12T17:52:36.551Z,99.99
2023-01-12T17:55:47.613Z,99.99
2023-01-12T17:58:52.063Z,99.99
2023-01-12T18:01:55.370Z,99.99
2023-01-12T18:04:57.855Z,99.99
2023-01-12T18:08:00.077Z,99.99
2023-01-12T18:11:07.421Z,99.99
2023-01-12T18:14:09.674Z,99.99
2023-01-12T18:17:12.803Z,99.99
2023-01-12T18:20:15.237Z,99.99
2023-01-12T18:23:17.623Z,99.99
2023-01-12T18:26:25.433Z,99.99
2023-01-12T18:29:27.827Z,99.99
2023-01-12T18:32:30.069Z,99.99
2023-01-12T18:35:36.001Z,99.99
2023-01-12T18:38:40.755Z,99.99
2023-01-12T18:42:01.437Z,99.99
2023-01-12T18:45:04.816Z,99.99
2023-01-12T18:48:23.703Z,99.99
2023-01-12T18:52:01.246Z,99.99
2023-01-12T18:55:04.850Z,99.99
2023-01-12T18:58:07.041Z,99.99
2023-01-12T19:01:15.558Z,99.99
2023-01-12T19:04:28.400Z,99.99
2023-01-12T19:07:50.014Z,99.99
2023-01-12T19:10:52.556Z,99.99
2023-01-12T19:14:13.188Z,99.99
2023-01-12T19:17:27.444Z,99.99
2023-01-12T19:20:30.598Z,99.99
2023-01-12T19:23:51.148Z,99.99
2023-01-12T19:27:11.949Z,99.99
2023-01-12T19:30:14.479Z,99.99
2023-01-12T19:33:17.840Z,99.99
2023-01-12T19:36:20.063Z,99.99
2023-01-12T19:39:34.617Z,99.99
2023-01-12T19:42:55.785Z,99.99
2023-01-12T19:46:00.597Z,99.99
2023-01-12T19:49:02.808Z,99.99
2023-01-12T19:52:05.169Z,99.99
2023-01-12T19:55:10.169Z,99.99
2023-01-12T19:58:12.472Z,99.99
2023-01-12T20:01:22.103Z,99.99
2023-01-12T20:04:24.542Z,99.99
2023-01-12T20:07:27.167Z,99.99
2023-01-12T20:10:29.427Z,99.99
2023-01-12T20:13:32.655Z,99.99
2023-01-12T20:16:35.019Z,99.99
2023-01-12T20:19:37.356Z,99.99
2023-01-12T20:22:39.817Z,99.99
2023-01-12T20:25:43.529Z,99.99
2023-01-12T20:28:45.827Z,99.99
2023-01-12T20:31:50.078Z,99.99
2023-01-12T20:34:52.967Z,99.99
2023-01-12T20:37:55.137Z,99.99
2023-01-12T20:40:57.418Z,99.99
2023-01-12T20:43:59.636Z,99.99
2023-01-12T20:47:01.975Z,99.99
2023-01-12T20:50:07.553Z,99.99
2023-01-12T20:53:11.482Z,99.99
2023-01-12T20:56:13.795Z,99.99
2023-01-12T20:59:16.745Z,99.99
2023-01-12T21:02:21.443Z,99.99
2023-01-12T21:05:23.719Z,99.99
2023-01-12T21:08:25.934Z,99.99
2023-01-12T21:11:28.191Z,99.99
2023-01-12T21:14:30.610Z,99.99
2023-01-12T21:17:33.003Z,99.99
2023-01-12T21:20:35.486Z,99.99
2023-01-12T21:23:38.033Z,99.99
2023-01-12T21:26:40.206Z,99.99
2023-01-12T21:29:42.543Z,99.99
2023-01-12T21:32:44.764Z,99.99
2023-01-12T21:35:55.727Z,99.99
2023-01-12T21:38:59.244Z,99.99
2023-01-12T21:42:20.366Z,99.99
2023-01-12T21:45:23.843Z,99.99
2023-01-12T21:48:26.090Z,99.99
2023-01-12T21:51:28.249Z,99.99
2023-01-12T21:54:31.260Z,99.99
2023-01-12T21:57:33.477Z,99.99
2023-01-12T22:00:35.819Z,99.99
2023-01-12T22:03:38.659Z,99.99
2023-01-12T22:06:40.996Z,99.99
2023-01-12T22:09:43.174Z,99.99
2023-01-12T22:12:57.042Z,99.99
2023-01-12T22:16:06.984Z,99.99
2023-01-12T22:19:09.346Z,99.99
2023-01-12T22:22:11.563Z,99.99
2023-01-12T22:25:15.421Z,99.99
2023-01-12T22:28:17.630Z,99.99
2023-01-12T22:31:22.573Z,99.99
2023-01-12T22:34:25.098Z,99.99
2023-01-12T22:37:33.573Z,99.99
2023-01-12T22:40:35.782Z,99.99
2023-01-12T22:43:40.901Z,99.99
2023-01-12T22:46:43.253Z,99.99
2023-01-12T22:49:45.544Z,99.99
2023-01-12T22:52:52.688Z,99.99
2023-01-12T22:55:59.434Z,99.99
2023-01-12T22:59:02.266Z,99.99
2023-01-12T23:02:24.585Z,99.99
2023-01-12T23:05:32.044Z,99.99
2023-01-12T23:08:34.291Z,99.99
2023-01-12T23:11:36.423Z,99.99
2023-01-12T23:14:39.131Z,99.99
2023-01-12T23:17:41.259Z,99.99
2023-01-12T23:20:43.823Z,99.99
2023-01-12T23:23:48.143Z,99.99
2023-01-12T23:26:50.369Z,99.99
2023-01-12T23:29:52.489Z,99.99
2023-01-12T23:32:54.656Z,99.99
2023-01-12T23:36:01.237Z,99.99
2023-01-12T23:39:06.439Z,99.99
2023-01-12T23:42:08.567Z,99.99
2023-01-12T23:45:11.272Z,99.99
2023-01-12T23:48:13.495Z,99.99
2023-01-12T23:51:16.221Z,99.99
2023-01-12T23:54:18.378Z,99.99
2023-01-12T23:57:20.555Z,99.99
